sensor_id;sensor_type;location;lat;lon;timestamp;temperature;humidity
1381;DHT22;684;48.342;10.096;2023-01-16T00:01:31;3.50;29.60
1381;DHT22;684;48.342;10.096;2023-01-16T00:03:58;3.50;29.70
1381;DHT22;684;48.342;10.096;2023-01-16T00:06:25;3.50;29.80
1381;DHT22;684;48.342;10.096;2023-01-16T00:08:51;3.40;29.90
1381;DHT22;684;48.342;10.096;2023-01-16T00:11:19;3.40;29.80
1381;DHT22;684;48.342;10.096;2023-01-16T00:13:46;3.40;29.80
1381;DHT22;684;48.342;10.096;2023-01-16T00:16:13;3.30;30.00
1381;DHT22;684;48.342;10.096;2023-01-16T00:18:40;3.30;30.30
1381;DHT22;684;48.342;10.096;2023-01-16T00:21:07;3.30;30.40
1381;DHT22;684;48.342;10.096;2023-01-16T00:23:33;3.20;30.40
1381;DHT22;684;48.342;10.096;2023-01-16T00:26:04;3.30;30.50
1381;DHT22;684;48.342;10.096;2023-01-16T00:28:32;3.30;30.50
1381;DHT22;684;48.342;10.096;2023-01-16T00:30:59;3.30;30.30
1381;DHT22;684;48.342;10.096;2023-01-16T00:33:26;3.30;30.20
1381;DHT22;684;48.342;10.096;2023-01-16T00:35:53;3.30;30.30
1381;DHT22;684;48.342;10.096;2023-01-16T00:38:19;3.30;30.20
1381;DHT22;684;48.342;10.096;2023-01-16T00:40:46;3.30;30.30
1381;DHT22;684;48.342;10.096;2023-01-16T00:43:13;3.20;30.50
1381;DHT22;684;48.342;10.096;2023-01-16T00:45:41;3.20;30.60
1381;DHT22;684;48.342;10.096;2023-01-16T00:48:08;3.20;30.80
1381;DHT22;684;48.342;10.096;2023-01-16T00:50:35;3.20;30.90
1381;DHT22;684;48.342;10.096;2023-01-16T00:53:02;3.10;31.00
1381;DHT22;684;48.342;10.096;2023-01-16T00:55:29;3.10;31.10
1381;DHT22;684;48.342;10.096;2023-01-16T00:57:55;3.10;31.10
1381;DHT22;684;48.342;10.096;2023-01-16T01:00:22;3.10;31.00
1381;DHT22;684;48.342;10.096;2023-01-16T01:02:52;3.10;31.00
1381;DHT22;684;48.342;10.096;2023-01-16T01:05:18;3.10;31.00
1381;DHT22;684;48.342;10.096;2023-01-16T01:07:45;3.10;30.70
1381;DHT22;684;48.342;10.096;2023-01-16T01:10:12;3.10;30.90
1381;DHT22;684;48.342;10.096;2023-01-16T01:12:39;3.10;31.00
1381;DHT22;684;48.342;10.096;2023-01-16T01:15:06;3.10;31.00
1381;DHT22;684;48.342;10.096;2023-01-16T01:17:33;3.00;30.90
1381;DHT22;684;48.342;10.096;2023-01-16T01:20:01;3.00;31.00
1381;DHT22;684;48.342;10.096;2023-01-16T01:22:28;3.00;31.10
1381;DHT22;684;48.342;10.096;2023-01-16T01:24:55;3.00;31.10
1381;DHT22;684;48.342;10.096;2023-01-16T01:27:21;3.00;31.00
1381;DHT22;684;48.342;10.096;2023-01-16T01:29:48;3.00;30.90
1381;DHT22;684;48.342;10.096;2023-01-16T01:32:15;2.90;31.10
1381;DHT22;684;48.342;10.096;2023-01-16T01:34:44;2.90;31.10
1381;DHT22;684;48.342;10.096;2023-01-16T01:37:13;2.90;31.20
1381;DHT22;684;48.342;10.096;2023-01-16T01:39:39;2.90;31.30
1381;DHT22;684;48.342;10.096;2023-01-16T01:42:09;2.80;31.30
1381;DHT22;684;48.342;10.096;2023-01-16T01:44:55;2.80;31.30
1381;DHT22;684;48.342;10.096;2023-01-16T01:47:25;2.80;31.20
1381;DHT22;684;48.342;10.096;2023-01-16T01:49:55;2.80;31.30
1381;DHT22;684;48.342;10.096;2023-01-16T01:52:25;2.80;31.30
1381;DHT22;684;48.342;10.096;2023-01-16T01:54:56;2.80;31.20
1381;DHT22;684;48.342;10.096;2023-01-16T01:57:28;2.80;31.10
1381;DHT22;684;48.342;10.096;2023-01-16T02:00:00;2.80;31.20
1381;DHT22;684;48.342;10.096;2023-01-16T02:02:32;2.80;31.10
1381;DHT22;684;48.342;10.096;2023-01-16T02:05:02;2.80;31.30
1381;DHT22;684;48.342;10.096;2023-01-16T02:07:31;2.80;31.20
1381;DHT22;684;48.342;10.096;2023-01-16T02:10:05;2.80;31.20
1381;DHT22;684;48.342;10.096;2023-01-16T02:12:36;2.70;31.50
1381;DHT22;684;48.342;10.096;2023-01-16T02:15:03;2.70;31.60
1381;DHT22;684;48.342;10.096;2023-01-16T02:17:30;2.70;31.70
1381;DHT22;684;48.342;10.096;2023-01-16T02:20:25;2.70;31.80
1381;DHT22;684;48.342;10.096;2023-01-16T02:31:49;2.60;31.70
1381;DHT22;684;48.342;10.096;2023-01-16T02:34:41;2.60;31.80
1381;DHT22;684;48.342;10.096;2023-01-16T02:37:17;2.60;32.00
1381;DHT22;684;48.342;10.096;2023-01-16T02:39:53;2.50;32.20
1381;DHT22;684;48.342;10.096;2023-01-16T02:42:28;2.50;32.40
1381;DHT22;684;48.342;10.096;2023-01-16T02:45:01;2.50;32.40
1381;DHT22;684;48.342;10.096;2023-01-16T02:47:35;2.50;32.30
1381;DHT22;684;48.342;10.096;2023-01-16T02:50:09;2.50;32.60
1381;DHT22;684;48.342;10.096;2023-01-16T02:52:40;2.50;32.70
1381;DHT22;684;48.342;10.096;2023-01-16T02:55:12;2.50;32.70
1381;DHT22;684;48.342;10.096;2023-01-16T02:57:45;2.50;32.70
1381;DHT22;684;48.342;10.096;2023-01-16T03:00:14;2.50;32.70
1381;DHT22;684;48.342;10.096;2023-01-16T03:02:46;2.40;32.90
1381;DHT22;684;48.342;10.096;2023-01-16T03:05:13;2.40;33.00
1381;DHT22;684;48.342;10.096;2023-01-16T03:08:14;2.40;33.00
1381;DHT22;684;48.342;10.096;2023-01-16T03:13:47;2.40;33.30
1381;DHT22;684;48.342;10.096;2023-01-16T03:16:26;2.30;33.40
1381;DHT22;684;48.342;10.096;2023-01-16T03:19:04;2.30;33.70
1381;DHT22;684;48.342;10.096;2023-01-16T03:21:39;2.30;34.00
1381;DHT22;684;48.342;10.096;2023-01-16T03:24:13;2.20;34.10
1381;DHT22;684;48.342;10.096;2023-01-16T03:26:47;2.20;34.30
1381;DHT22;684;48.342;10.096;2023-01-16T03:29:18;2.20;34.30
1381;DHT22;684;48.342;10.096;2023-01-16T03:31:54;2.20;34.40
1381;DHT22;684;48.342;10.096;2023-01-16T03:34:29;2.20;34.30
1381;DHT22;684;48.342;10.096;2023-01-16T03:37:02;2.20;34.30
1381;DHT22;684;48.342;10.096;2023-01-16T03:39:34;2.20;34.30
1381;DHT22;684;48.342;10.096;2023-01-16T03:42:04;2.20;34.30
1381;DHT22;684;48.342;10.096;2023-01-16T03:44:35;2.20;34.40
1381;DHT22;684;48.342;10.096;2023-01-16T03:47:02;2.20;34.30
1381;DHT22;684;48.342;10.096;2023-01-16T03:49:36;2.20;34.40
1381;DHT22;684;48.342;10.096;2023-01-16T03:52:06;2.20;34.50
1381;DHT22;684;48.342;10.096;2023-01-16T03:54:41;2.20;34.60
1381;DHT22;684;48.342;10.096;2023-01-16T03:57:12;2.10;34.90
1381;DHT22;684;48.342;10.096;2023-01-16T03:59:42;2.10;35.00
1381;DHT22;684;48.342;10.096;2023-01-16T04:02:13;2.10;35.20
1381;DHT22;684;48.342;10.096;2023-01-16T04:04:46;2.00;35.30
1381;DHT22;684;48.342;10.096;2023-01-16T04:07:21;2.00;35.20
1381;DHT22;684;48.342;10.096;2023-01-16T04:09:53;2.00;35.30
1381;DHT22;684;48.342;10.096;2023-01-16T04:12:24;2.00;35.20
1381;DHT22;684;48.342;10.096;2023-01-16T04:14:55;2.00;35.20
1381;DHT22;684;48.342;10.096;2023-01-16T04:17:23;2.00;35.10
1381;DHT22;684;48.342;10.096;2023-01-16T04:19:51;2.00;35.10
1381;DHT22;684;48.342;10.096;2023-01-16T04:22:19;2.00;35.20
1381;DHT22;684;48.342;10.096;2023-01-16T04:24:47;2.00;35.10
1381;DHT22;684;48.342;10.096;2023-01-16T04:27:15;2.00;35.10
1381;DHT22;684;48.342;10.096;2023-01-16T04:29:41;2.00;35.10
1381;DHT22;684;48.342;10.096;2023-01-16T04:32:08;2.00;35.10
1381;DHT22;684;48.342;10.096;2023-01-16T04:34:35;2.00;35.10
1381;DHT22;684;48.342;10.096;2023-01-16T04:37:03;2.00;35.00
1381;DHT22;684;48.342;10.096;2023-01-16T04:39:30;2.00;35.00
1381;DHT22;684;48.342;10.096;2023-01-16T04:41:57;2.00;35.00
1381;DHT22;684;48.342;10.096;2023-01-16T04:44:24;1.90;35.20
1381;DHT22;684;48.342;10.096;2023-01-16T04:46:51;1.90;35.30
1381;DHT22;684;48.342;10.096;2023-01-16T04:49:19;1.90;35.40
1381;DHT22;684;48.342;10.096;2023-01-16T04:51:46;1.90;35.40
1381;DHT22;684;48.342;10.096;2023-01-16T04:54:16;1.90;35.30
1381;DHT22;684;48.342;10.096;2023-01-16T04:56:44;1.90;35.30
1381;DHT22;684;48.342;10.096;2023-01-16T04:59:11;1.90;35.10
1381;DHT22;684;48.342;10.096;2023-01-16T05:01:38;1.90;34.90
1381;DHT22;684;48.342;10.096;2023-01-16T05:04:07;1.90;35.00
1381;DHT22;684;48.342;10.096;2023-01-16T05:06:34;1.90;35.00
1381;DHT22;684;48.342;10.096;2023-01-16T05:09:02;1.90;34.80
1381;DHT22;684;48.342;10.096;2023-01-16T05:11:30;1.90;34.80
1381;DHT22;684;48.342;10.096;2023-01-16T05:13:58;1.90;34.60
1381;DHT22;684;48.342;10.096;2023-01-16T05:16:25;1.90;34.50
1381;DHT22;684;48.342;10.096;2023-01-16T05:18:52;1.90;34.10
1381;DHT22;684;48.342;10.096;2023-01-16T05:21:19;1.90;34.10
1381;DHT22;684;48.342;10.096;2023-01-16T05:23:46;1.90;33.80
1381;DHT22;684;48.342;10.096;2023-01-16T05:26:12;1.90;33.50
1381;DHT22;684;48.342;10.096;2023-01-16T05:28:40;1.90;33.20
1381;DHT22;684;48.342;10.096;2023-01-16T05:31:07;2.00;33.00
1381;DHT22;684;48.342;10.096;2023-01-16T05:33:34;2.00;32.70
1381;DHT22;684;48.342;10.096;2023-01-16T05:36:01;2.00;32.50
1381;DHT22;684;48.342;10.096;2023-01-16T05:38:27;2.00;32.40
1381;DHT22;684;48.342;10.096;2023-01-16T05:40:54;2.00;32.20
1381;DHT22;684;48.342;10.096;2023-01-16T05:43:21;2.00;32.00
1381;DHT22;684;48.342;10.096;2023-01-16T05:45:49;2.00;32.20
1381;DHT22;684;48.342;10.096;2023-01-16T05:48:16;2.00;32.40
1381;DHT22;684;48.342;10.096;2023-01-16T05:50:43;2.00;32.10
1381;DHT22;684;48.342;10.096;2023-01-16T05:53:10;2.00;32.00
1381;DHT22;684;48.342;10.096;2023-01-16T05:55:40;2.00;31.60
1381;DHT22;684;48.342;10.096;2023-01-16T05:58:09;2.00;31.50
1381;DHT22;684;48.342;10.096;2023-01-16T06:00:36;2.00;31.30
1381;DHT22;684;48.342;10.096;2023-01-16T06:03:04;2.00;31.40
1381;DHT22;684;48.342;10.096;2023-01-16T06:05:31;2.00;31.20
1381;DHT22;684;48.342;10.096;2023-01-16T06:07:58;2.10;31.10
1381;DHT22;684;48.342;10.096;2023-01-16T06:10:25;2.10;31.00
1381;DHT22;684;48.342;10.096;2023-01-16T06:12:52;2.10;30.90
1381;DHT22;684;48.342;10.096;2023-01-16T06:15:19;2.10;30.80
1381;DHT22;684;48.342;10.096;2023-01-16T06:17:46;2.10;30.70
1381;DHT22;684;48.342;10.096;2023-01-16T06:20:14;2.10;30.70
1381;DHT22;684;48.342;10.096;2023-01-16T06:22:41;2.10;30.70
1381;DHT22;684;48.342;10.096;2023-01-16T06:25:08;2.10;30.90
1381;DHT22;684;48.342;10.096;2023-01-16T06:27:35;2.10;30.70
1381;DHT22;684;48.342;10.096;2023-01-16T06:30:02;2.10;30.50
1381;DHT22;684;48.342;10.096;2023-01-16T06:32:29;2.10;30.60
1381;DHT22;684;48.342;10.096;2023-01-16T06:34:55;2.10;30.30
1381;DHT22;684;48.342;10.096;2023-01-16T06:37:23;2.10;30.40
1381;DHT22;684;48.342;10.096;2023-01-16T06:39:50;2.10;30.30
1381;DHT22;684;48.342;10.096;2023-01-16T06:42:17;2.10;30.20
1381;DHT22;684;48.342;10.096;2023-01-16T06:44:45;2.10;30.10
1381;DHT22;684;48.342;10.096;2023-01-16T06:47:12;2.10;30.10
1381;DHT22;684;48.342;10.096;2023-01-16T06:49:40;2.10;30.10
1381;DHT22;684;48.342;10.096;2023-01-16T06:52:07;2.10;30.00
1381;DHT22;684;48.342;10.096;2023-01-16T06:54:35;2.10;29.90
1381;DHT22;684;48.342;10.096;2023-01-16T06:57:02;2.10;29.70
1381;DHT22;684;48.342;10.096;2023-01-16T06:59:28;2.10;29.70
1381;DHT22;684;48.342;10.096;2023-01-16T07:01:55;2.10;29.80
1381;DHT22;684;48.342;10.096;2023-01-16T07:04:22;2.10;29.70
1381;DHT22;684;48.342;10.096;2023-01-16T07:06:49;2.10;29.70
1381;DHT22;684;48.342;10.096;2023-01-16T07:09:16;2.10;29.60
1381;DHT22;684;48.342;10.096;2023-01-16T07:11:44;2.10;29.40
1381;DHT22;684;48.342;10.096;2023-01-16T07:14:12;2.10;29.30
1381;DHT22;684;48.342;10.096;2023-01-16T07:16:56;2.20;28.90
1381;DHT22;684;48.342;10.096;2023-01-16T07:19:41;2.20;29.20
1381;DHT22;684;48.342;10.096;2023-01-16T07:22:25;2.20;28.90
1381;DHT22;684;48.342;10.096;2023-01-16T07:25:06;2.30;27.70
1381;DHT22;684;48.342;10.096;2023-01-16T07:27:35;2.30;27.60
1381;DHT22;684;48.342;10.096;2023-01-16T07:30:02;2.40;26.90
1381;DHT22;684;48.342;10.096;2023-01-16T07:32:29;2.50;27.00
1381;DHT22;684;48.342;10.096;2023-01-16T07:34:55;2.60;27.10
1381;DHT22;684;48.342;10.096;2023-01-16T07:37:22;2.70;27.40
1381;DHT22;684;48.342;10.096;2023-01-16T07:39:49;2.70;27.20
1381;DHT22;684;48.342;10.096;2023-01-16T07:42:15;2.80;27.00
1381;DHT22;684;48.342;10.096;2023-01-16T07:44:43;2.90;26.80
1381;DHT22;684;48.342;10.096;2023-01-16T07:47:10;3.10;26.40
1381;DHT22;684;48.342;10.096;2023-01-16T07:49:38;3.20;26.00
1381;DHT22;684;48.342;10.096;2023-01-16T07:52:04;3.40;25.80
1381;DHT22;684;48.342;10.096;2023-01-16T07:54:31;3.80;24.50
1381;DHT22;684;48.342;10.096;2023-01-16T07:57:01;4.30;24.30
1381;DHT22;684;48.342;10.096;2023-01-16T07:59:27;5.00;21.90
1381;DHT22;684;48.342;10.096;2023-01-16T08:01:55;5.70;20.00
1381;DHT22;684;48.342;10.096;2023-01-16T08:04:22;6.10;19.20
1381;DHT22;684;48.342;10.096;2023-01-16T08:06:49;6.70;18.70
1381;DHT22;684;48.342;10.096;2023-01-16T08:09:16;7.30;17.20
1381;DHT22;684;48.342;10.096;2023-01-16T08:11:42;7.40;16.10
1381;DHT22;684;48.342;10.096;2023-01-16T08:14:12;7.60;15.40
1381;DHT22;684;48.342;10.096;2023-01-16T08:16:39;8.50;14.30
1381;DHT22;684;48.342;10.096;2023-01-16T08:19:08;9.30;12.30
1381;DHT22;684;48.342;10.096;2023-01-16T08:21:34;9.90;10.90
1381;DHT22;684;48.342;10.096;2023-01-16T08:24:01;10.40;9.60
1381;DHT22;684;48.342;10.096;2023-01-16T08:26:28;10.70;9.20
1381;DHT22;684;48.342;10.096;2023-01-16T08:28:55;10.80;8.90
1381;DHT22;684;48.342;10.096;2023-01-16T08:31:22;11.20;8.10
1381;DHT22;684;48.342;10.096;2023-01-16T08:33:49;11.60;7.00
1381;DHT22;684;48.342;10.096;2023-01-16T08:36:17;11.80;6.90
1381;DHT22;684;48.342;10.096;2023-01-16T08:38:46;11.60;6.00
1381;DHT22;684;48.342;10.096;2023-01-16T08:41:13;11.20;6.70
1381;DHT22;684;48.342;10.096;2023-01-16T08:43:53;10.80;6.60
1381;DHT22;684;48.342;10.096;2023-01-16T08:46:38;10.30;7.00
1381;DHT22;684;48.342;10.096;2023-01-16T08:49:23;9.90;7.90
1381;DHT22;684;48.342;10.096;2023-01-16T08:52:09;9.50;8.10
1381;DHT22;684;48.342;10.096;2023-01-16T08:54:36;9.10;8.90
1381;DHT22;684;48.342;10.096;2023-01-16T08:57:04;8.80;9.80
1381;DHT22;684;48.342;10.096;2023-01-16T08:59:31;8.70;10.70
1381;DHT22;684;48.342;10.096;2023-01-16T09:01:59;8.60;10.50
1381;DHT22;684;48.342;10.096;2023-01-16T09:04:26;8.50;10.60
1381;DHT22;684;48.342;10.096;2023-01-16T09:06:53;8.40;10.80
1381;DHT22;684;48.342;10.096;2023-01-16T09:09:21;8.40;10.90
1381;DHT22;684;48.342;10.096;2023-01-16T09:11:54;8.30;10.90
1381;DHT22;684;48.342;10.096;2023-01-16T09:14:38;8.30;11.20
1381;DHT22;684;48.342;10.096;2023-01-16T09:17:05;8.20;11.60
1381;DHT22;684;48.342;10.096;2023-01-16T09:19:33;8.20;11.80
1381;DHT22;684;48.342;10.096;2023-01-16T09:22:00;8.30;11.80
1381;DHT22;684;48.342;10.096;2023-01-16T09:24:28;8.20;11.80
1381;DHT22;684;48.342;10.096;2023-01-16T09:26:54;8.10;11.00
1381;DHT22;684;48.342;10.096;2023-01-16T09:29:21;7.90;11.60
1381;DHT22;684;48.342;10.096;2023-01-16T09:31:48;7.70;11.60
1381;DHT22;684;48.342;10.096;2023-01-16T09:34:15;7.50;12.20
1381;DHT22;684;48.342;10.096;2023-01-16T09:36:42;7.30;12.10
1381;DHT22;684;48.342;10.096;2023-01-16T09:39:09;7.10;12.90
1381;DHT22;684;48.342;10.096;2023-01-16T09:41:44;7.10;13.60
1381;DHT22;684;48.342;10.096;2023-01-16T09:44:31;7.00;14.10
1381;DHT22;684;48.342;10.096;2023-01-16T09:46:58;6.90;14.50
1381;DHT22;684;48.342;10.096;2023-01-16T09:49:30;6.90;14.80
1381;DHT22;684;48.342;10.096;2023-01-16T09:52:01;7.00;15.70
1381;DHT22;684;48.342;10.096;2023-01-16T09:54:51;7.40;15.40
1381;DHT22;684;48.342;10.096;2023-01-16T09:57:39;8.00;14.90
1381;DHT22;684;48.342;10.096;2023-01-16T10:00:26;8.70;14.40
1381;DHT22;684;48.342;10.096;2023-01-16T10:02:55;9.10;13.30
1381;DHT22;684;48.342;10.096;2023-01-16T10:05:26;9.30;12.90
1381;DHT22;684;48.342;10.096;2023-01-16T10:07:58;9.30;12.10
1381;DHT22;684;48.342;10.096;2023-01-16T10:10:36;9.20;11.90
1381;DHT22;684;48.342;10.096;2023-01-16T10:13:15;9.10;11.90
1381;DHT22;684;48.342;10.096;2023-01-16T10:15:54;8.90;11.90
1381;DHT22;684;48.342;10.096;2023-01-16T10:18:31;8.70;12.10
1381;DHT22;684;48.342;10.096;2023-01-16T10:21:16;8.50;12.80
1381;DHT22;684;48.342;10.096;2023-01-16T10:23:52;8.30;13.60
1381;DHT22;684;48.342;10.096;2023-01-16T10:26:24;8.10;14.30
1381;DHT22;684;48.342;10.096;2023-01-16T10:29:01;7.90;15.10
1381;DHT22;684;48.342;10.096;2023-01-16T10:31:34;7.90;15.60
1381;DHT22;684;48.342;10.096;2023-01-16T10:34:07;7.70;15.80
1381;DHT22;684;48.342;10.096;2023-01-16T10:36:42;7.60;16.10
1381;DHT22;684;48.342;10.096;2023-01-16T10:39:11;7.40;16.40
1381;DHT22;684;48.342;10.096;2023-01-16T10:41:44;7.30;16.90
1381;DHT22;684;48.342;10.096;2023-01-16T10:44:33;7.30;17.30
1381;DHT22;684;48.342;10.096;2023-01-16T10:47:18;7.10;17.60
1381;DHT22;684;48.342;10.096;2023-01-16T10:50:04;7.00;18.10
1381;DHT22;684;48.342;10.096;2023-01-16T10:52:31;6.90;18.40
1381;DHT22;684;48.342;10.096;2023-01-16T10:54:59;6.80;18.60
1381;DHT22;684;48.342;10.096;2023-01-16T10:57:27;6.80;18.80
1381;DHT22;684;48.342;10.096;2023-01-16T11:00:00;6.80;18.90
1381;DHT22;684;48.342;10.096;2023-01-16T11:02:31;6.80;18.90
1381;DHT22;684;48.342;10.096;2023-01-16T11:04:59;6.80;19.00
1381;DHT22;684;48.342;10.096;2023-01-16T11:07:28;6.90;18.80
1381;DHT22;684;48.342;10.096;2023-01-16T11:09:56;6.90;18.80
1381;DHT22;684;48.342;10.096;2023-01-16T11:12:26;6.90;18.90
1381;DHT22;684;48.342;10.096;2023-01-16T11:15:18;6.90;19.00
1381;DHT22;684;48.342;10.096;2023-01-16T11:18:19;7.00;19.00
1381;DHT22;684;48.342;10.096;2023-01-16T11:20:56;7.00;18.90
1381;DHT22;684;48.342;10.096;2023-01-16T11:23:25;7.10;18.40
1381;DHT22;684;48.342;10.096;2023-01-16T11:25:54;7.10;18.60
1381;DHT22;684;48.342;10.096;2023-01-16T11:28:25;7.00;18.70
1381;DHT22;684;48.342;10.096;2023-01-16T11:30:56;7.00;18.70
1381;DHT22;684;48.342;10.096;2023-01-16T11:33:26;6.90;18.80
1381;DHT22;684;48.342;10.096;2023-01-16T11:35:56;6.80;19.00
1381;DHT22;684;48.342;10.096;2023-01-16T11:38:24;6.80;19.10
1381;DHT22;684;48.342;10.096;2023-01-16T11:40:55;6.80;19.20
1381;DHT22;684;48.342;10.096;2023-01-16T11:43:24;6.70;19.30
1381;DHT22;684;48.342;10.096;2023-01-16T11:46:30;6.70;19.40
1381;DHT22;684;48.342;10.096;2023-01-16T11:48:59;6.60;19.40
1381;DHT22;684;48.342;10.096;2023-01-16T11:51:28;6.50;19.40
1381;DHT22;684;48.342;10.096;2023-01-16T11:53:56;6.50;19.70
1381;DHT22;684;48.342;10.096;2023-01-16T11:56:39;6.40;20.00
1381;DHT22;684;48.342;10.096;2023-01-16T11:59:25;6.40;20.50
1381;DHT22;684;48.342;10.096;2023-01-16T12:02:03;6.30;20.60
1381;DHT22;684;48.342;10.096;2023-01-16T12:04:51;6.30;20.70
1381;DHT22;684;48.342;10.096;2023-01-16T12:07:42;6.30;20.70
1381;DHT22;684;48.342;10.096;2023-01-16T12:10:25;6.20;20.70
1381;DHT22;684;48.342;10.096;2023-01-16T12:13:01;6.10;21.00
1381;DHT22;684;48.342;10.096;2023-01-16T12:16:03;6.10;21.00
1381;DHT22;684;48.342;10.096;2023-01-16T12:18:38;6.10;20.70
1381;DHT22;684;48.342;10.096;2023-01-16T12:21:17;6.00;20.70
1381;DHT22;684;48.342;10.096;2023-01-16T12:26:49;6.00;20.90
1381;DHT22;684;48.342;10.096;2023-01-16T12:29:24;5.90;20.90
1381;DHT22;684;48.342;10.096;2023-01-16T12:32:13;5.80;20.90
1381;DHT22;684;48.342;10.096;2023-01-16T12:34:58;5.80;21.00
1381;DHT22;684;48.342;10.096;2023-01-16T12:37:45;5.80;20.90
1381;DHT22;684;48.342;10.096;2023-01-16T12:40:28;5.80;20.60
1381;DHT22;684;48.342;10.096;2023-01-16T12:43:04;5.70;20.30
1381;DHT22;684;48.342;10.096;2023-01-16T12:45:50;5.70;20.50
1381;DHT22;684;48.342;10.096;2023-01-16T12:48:36;5.70;20.70
1381;DHT22;684;48.342;10.096;2023-01-16T12:51:17;5.70;20.80
1381;DHT22;684;48.342;10.096;2023-01-16T12:57:11;5.70;20.50
1381;DHT22;684;48.342;10.096;2023-01-16T12:59:45;5.70;20.30
1381;DHT22;684;48.342;10.096;2023-01-16T13:02:20;5.70;20.00
1381;DHT22;684;48.342;10.096;2023-01-16T13:04:53;5.70;20.50
1381;DHT22;684;48.342;10.096;2023-01-16T13:07:26;5.60;21.00
1381;DHT22;684;48.342;10.096;2023-01-16T13:09:59;5.50;21.40
1381;DHT22;684;48.342;10.096;2023-01-16T13:12:43;5.40;21.80
1381;DHT22;684;48.342;10.096;2023-01-16T13:15:25;5.30;22.10
1381;DHT22;684;48.342;10.096;2023-01-16T13:17:58;5.20;22.40
1381;DHT22;684;48.342;10.096;2023-01-16T13:20:30;5.20;22.50
1381;DHT22;684;48.342;10.096;2023-01-16T13:23:02;5.20;22.50
1381;DHT22;684;48.342;10.096;2023-01-16T13:25:33;5.20;22.70
1381;DHT22;684;48.342;10.096;2023-01-16T13:28:05;5.20;22.70
1381;DHT22;684;48.342;10.096;2023-01-16T13:30:33;5.20;22.70
1381;DHT22;684;48.342;10.096;2023-01-16T13:33:04;5.20;22.60
1381;DHT22;684;48.342;10.096;2023-01-16T13:35:37;5.20;22.60
1381;DHT22;684;48.342;10.096;2023-01-16T13:41:22;5.30;22.20
1381;DHT22;684;48.342;10.096;2023-01-16T13:43:54;5.30;22.00
1381;DHT22;684;48.342;10.096;2023-01-16T13:46:40;5.30;21.60
1381;DHT22;684;48.342;10.096;2023-01-16T13:49:12;5.30;21.70
1381;DHT22;684;48.342;10.096;2023-01-16T13:51:42;5.30;21.10
1381;DHT22;684;48.342;10.096;2023-01-16T13:54:15;5.30;20.80
1381;DHT22;684;48.342;10.096;2023-01-16T13:56:42;5.20;21.20
1381;DHT22;684;48.342;10.096;2023-01-16T13:59:33;5.20;20.90
1381;DHT22;684;48.342;10.096;2023-01-16T14:02:21;5.20;21.00
1381;DHT22;684;48.342;10.096;2023-01-16T14:05:24;5.20;20.60
1381;DHT22;684;48.342;10.096;2023-01-16T14:08:12;5.20;20.90
1381;DHT22;684;48.342;10.096;2023-01-16T14:11:24;5.20;21.00
1381;DHT22;684;48.342;10.096;2023-01-16T14:17:20;5.20;20.80
1381;DHT22;684;48.342;10.096;2023-01-16T14:19:56;5.10;20.90
1381;DHT22;684;48.342;10.096;2023-01-16T14:22:26;5.00;20.80
1381;DHT22;684;48.342;10.096;2023-01-16T14:25:20;5.00;20.10
1381;DHT22;684;48.342;10.096;2023-01-16T14:27:52;5.00;20.80
1381;DHT22;684;48.342;10.096;2023-01-16T14:30:24;4.90;21.10
1381;DHT22;684;48.342;10.096;2023-01-16T14:32:54;4.90;20.40
1381;DHT22;684;48.342;10.096;2023-01-16T14:35:24;4.90;20.70
1381;DHT22;684;48.342;10.096;2023-01-16T14:37:57;4.90;20.70
1381;DHT22;684;48.342;10.096;2023-01-16T14:40:27;4.90;21.10
1381;DHT22;684;48.342;10.096;2023-01-16T14:43:12;4.90;21.40
1381;DHT22;684;48.342;10.096;2023-01-16T14:46:29;4.90;22.10
1381;DHT22;684;48.342;10.096;2023-01-16T14:49:39;4.90;21.60
1381;DHT22;684;48.342;10.096;2023-01-16T14:52:48;4.90;22.30
1381;DHT22;684;48.342;10.096;2023-01-16T14:55:43;4.80;22.30
1381;DHT22;684;48.342;10.096;2023-01-16T14:58:19;4.80;22.20
1381;DHT22;684;48.342;10.096;2023-01-16T15:00:48;4.80;21.90
1381;DHT22;684;48.342;10.096;2023-01-16T15:03:20;4.80;21.70
1381;DHT22;684;48.342;10.096;2023-01-16T15:05:50;4.80;21.60
1381;DHT22;684;48.342;10.096;2023-01-16T15:08:22;4.80;21.10
1381;DHT22;684;48.342;10.096;2023-01-16T15:10:52;4.80;19.40
1381;DHT22;684;48.342;10.096;2023-01-16T15:13:23;4.80;20.30
1381;DHT22;684;48.342;10.096;2023-01-16T15:15:53;4.90;20.30
1381;DHT22;684;48.342;10.096;2023-01-16T15:18:20;4.90;20.50
1381;DHT22;684;48.342;10.096;2023-01-16T15:21:11;5.00;20.70
1381;DHT22;684;48.342;10.096;2023-01-16T15:23:59;4.90;21.20
1381;DHT22;684;48.342;10.096;2023-01-16T15:26:52;4.90;20.80
1381;DHT22;684;48.342;10.096;2023-01-16T15:29:33;4.90;21.20
1381;DHT22;684;48.342;10.096;2023-01-16T15:32:03;4.90;20.30
1381;DHT22;684;48.342;10.096;2023-01-16T15:34:31;4.80;20.30
1381;DHT22;684;48.342;10.096;2023-01-16T15:36:58;4.80;20.30
1381;DHT22;684;48.342;10.096;2023-01-16T15:39:33;4.80;20.30
1381;DHT22;684;48.342;10.096;2023-01-16T15:42:11;4.80;20.30
1381;DHT22;684;48.342;10.096;2023-01-16T15:45:00;4.70;20.30
1381;DHT22;684;48.342;10.096;2023-01-16T15:48:01;4.70;20.50
1381;DHT22;684;48.342;10.096;2023-01-16T15:50:44;4.60;20.60
1381;DHT22;684;48.342;10.096;2023-01-16T15:53:12;4.60;20.80
1381;DHT22;684;48.342;10.096;2023-01-16T15:55:43;4.50;21.20
1381;DHT22;684;48.342;10.096;2023-01-16T15:58:14;4.50;21.40
1381;DHT22;684;48.342;10.096;2023-01-16T16:00:43;4.50;21.50
1381;DHT22;684;48.342;10.096;2023-01-16T16:03:12;4.50;20.80
1381;DHT22;684;48.342;10.096;2023-01-16T16:05:41;4.50;20.60
1381;DHT22;684;48.342;10.096;2023-01-16T16:08:12;4.50;19.90
1381;DHT22;684;48.342;10.096;2023-01-16T16:10:41;4.50;20.10
1381;DHT22;684;48.342;10.096;2023-01-16T16:13:25;4.50;20.10
1381;DHT22;684;48.342;10.096;2023-01-16T16:15:55;4.40;20.00
1381;DHT22;684;48.342;10.096;2023-01-16T16:18:51;4.50;19.60
1381;DHT22;684;48.342;10.096;2023-01-16T16:21:19;4.50;19.30
1381;DHT22;684;48.342;10.096;2023-01-16T16:23:56;4.50;18.90
1381;DHT22;684;48.342;10.096;2023-01-16T16:26:24;4.60;18.70
1381;DHT22;684;48.342;10.096;2023-01-16T16:28:50;4.60;18.70
1381;DHT22;684;48.342;10.096;2023-01-16T16:31:23;4.60;18.90
1381;DHT22;684;48.342;10.096;2023-01-16T16:33:57;4.60;18.60
1381;DHT22;684;48.342;10.096;2023-01-16T16:36:24;4.60;18.40
1381;DHT22;684;48.342;10.096;2023-01-16T16:38:52;4.60;18.30
1381;DHT22;684;48.342;10.096;2023-01-16T16:41:42;4.60;18.10
1381;DHT22;684;48.342;10.096;2023-01-16T16:44:33;4.60;18.80
1381;DHT22;684;48.342;10.096;2023-01-16T16:47:02;4.60;18.90
1381;DHT22;684;48.342;10.096;2023-01-16T16:49:30;4.60;19.00
1381;DHT22;684;48.342;10.096;2023-01-16T16:52:25;4.70;18.70
1381;DHT22;684;48.342;10.096;2023-01-16T16:54:54;4.70;18.70
1381;DHT22;684;48.342;10.096;2023-01-16T16:57:22;4.70;18.20
1381;DHT22;684;48.342;10.096;2023-01-16T16:59:53;4.80;18.00
1381;DHT22;684;48.342;10.096;2023-01-16T17:02:22;4.90;18.10
1381;DHT22;684;48.342;10.096;2023-01-16T17:04:49;4.90;18.10
1381;DHT22;684;48.342;10.096;2023-01-16T17:07:16;5.00;18.20
1381;DHT22;684;48.342;10.096;2023-01-16T17:09:43;5.10;18.10
1381;DHT22;684;48.342;10.096;2023-01-16T17:12:14;5.20;18.50
1381;DHT22;684;48.342;10.096;2023-01-16T17:14:41;5.30;18.60
1381;DHT22;684;48.342;10.096;2023-01-16T17:17:12;5.30;18.70